sensor_id;sensor_type;location;lat;lon;timestamp;P1;durP1;ratioP1;P2;durP2;ratioP2
73900;SDS011;62235;52.160;7.526;2023-04-06T00:01:18;8.37;;;4.20;;
73900;SDS011;62235;52.160;7.526;2023-04-06T00:03:44;6.38;;;3.85;;
73900;SDS011;62235;52.160;7.526;2023-04-06T00:06:09;8.32;;;3.53;;
73900;SDS011;62235;52.160;7.526;2023-04-06T00:08:35;7.07;;;4.28;;
73900;SDS011;62235;52.160;7.526;2023-04-06T00:11:00;7.45;;;4.38;;
73900;SDS011;62235;52.160;7.526;2023-04-06T00:13:25;9.07;;;3.97;;
73900;SDS011;62235;52.160;7.526;2023-04-06T00:15:51;7.10;;;4.00;;
73900;SDS011;62235;52.160;7.526;2023-04-06T00:18:16;9.00;;;3.67;;
73900;SDS011;62235;52.160;7.526;2023-04-06T00:20:41;6.47;;;3.83;;
73900;SDS011;62235;52.160;7.526;2023-04-06T00:23:07;9.47;;;4.00;;
73900;SDS011;62235;52.160;7.526;2023-04-06T00:25:32;8.43;;;4.27;;
73900;SDS011;62235;52.160;7.526;2023-04-06T00:27:57;6.30;;;4.03;;
73900;SDS011;62235;52.160;7.526;2023-04-06T00:30:23;6.80;;;3.97;;
73900;SDS011;62235;52.160;7.526;2023-04-06T00:32:48;7.13;;;3.97;;
73900;SDS011;62235;52.160;7.526;2023-04-06T00:35:14;8.15;;;4.35;;
73900;SDS011;62235;52.160;7.526;2023-04-06T00:37:40;5.53;;;3.55;;
73900;SDS011;62235;52.160;7.526;2023-04-06T00:40:06;8.80;;;4.37;;
73900;SDS011;62235;52.160;7.526;2023-04-06T00:42:31;8.73;;;4.57;;
73900;SDS011;62235;52.160;7.526;2023-04-06T00:44:58;13.23;;;4.93;;
73900;SDS011;62235;52.160;7.526;2023-04-06T00:47:24;7.80;;;4.22;;
73900;SDS011;62235;52.160;7.526;2023-04-06T00:49:50;8.05;;;4.28;;
73900;SDS011;62235;52.160;7.526;2023-04-06T00:52:16;10.85;;;4.20;;
73900;SDS011;62235;52.160;7.526;2023-04-06T00:54:42;13.82;;;3.92;;
73900;SDS011;62235;52.160;7.526;2023-04-06T00:57:07;8.68;;;4.20;;
73900;SDS011;62235;52.160;7.526;2023-04-06T00:59:33;7.35;;;4.30;;
73900;SDS011;62235;52.160;7.526;2023-04-06T01:01:58;7.40;;;3.70;;
73900;SDS011;62235;52.160;7.526;2023-04-06T01:04:23;9.57;;;4.30;;
73900;SDS011;62235;52.160;7.526;2023-04-06T01:06:49;5.72;;;3.50;;
73900;SDS011;62235;52.160;7.526;2023-04-06T01:09:15;7.93;;;4.18;;
73900;SDS011;62235;52.160;7.526;2023-04-06T01:11:41;8.32;;;4.03;;
73900;SDS011;62235;52.160;7.526;2023-04-06T01:14:06;7.50;;;4.17;;
73900;SDS011;62235;52.160;7.526;2023-04-06T01:16:32;8.25;;;4.28;;
73900;SDS011;62235;52.160;7.526;2023-04-06T01:18:57;8.30;;;4.30;;
73900;SDS011;62235;52.160;7.526;2023-04-06T01:21:23;8.23;;;4.07;;
73900;SDS011;62235;52.160;7.526;2023-04-06T01:23:48;7.80;;;3.90;;
73900;SDS011;62235;52.160;7.526;2023-04-06T01:26:13;6.72;;;4.15;;
73900;SDS011;62235;52.160;7.526;2023-04-06T01:28:39;11.25;;;4.55;;
73900;SDS011;62235;52.160;7.526;2023-04-06T01:31:06;9.73;;;4.07;;
73900;SDS011;62235;52.160;7.526;2023-04-06T01:33:31;8.15;;;3.83;;
73900;SDS011;62235;52.160;7.526;2023-04-06T01:35:57;13.10;;;4.57;;
73900;SDS011;62235;52.160;7.526;2023-04-06T01:38:22;7.95;;;4.40;;
73900;SDS011;62235;52.160;7.526;2023-04-06T01:40:47;10.80;;;4.37;;
73900;SDS011;62235;52.160;7.526;2023-04-06T01:43:13;15.90;;;5.00;;
73900;SDS011;62235;52.160;7.526;2023-04-06T01:45:38;7.93;;;4.40;;
73900;SDS011;62235;52.160;7.526;2023-04-06T01:48:04;9.90;;;4.35;;
73900;SDS011;62235;52.160;7.526;2023-04-06T01:50:30;10.82;;;4.70;;
73900;SDS011;62235;52.160;7.526;2023-04-06T01:52:55;7.20;;;4.37;;
73900;SDS011;62235;52.160;7.526;2023-04-06T01:55:20;10.73;;;4.35;;
73900;SDS011;62235;52.160;7.526;2023-04-06T01:57:46;11.57;;;4.53;;
73900;SDS011;62235;52.160;7.526;2023-04-06T02:00:11;8.37;;;3.67;;
73900;SDS011;62235;52.160;7.526;2023-04-06T02:02:37;9.63;;;3.78;;
73900;SDS011;62235;52.160;7.526;2023-04-06T02:05:03;9.03;;;4.17;;
73900;SDS011;62235;52.160;7.526;2023-04-06T02:07:28;7.13;;;3.88;;
73900;SDS011;62235;52.160;7.526;2023-04-06T02:09:54;5.60;;;3.90;;
73900;SDS011;62235;52.160;7.526;2023-04-06T02:12:20;7.25;;;3.67;;
73900;SDS011;62235;52.160;7.526;2023-04-06T02:14:45;11.90;;;5.43;;
73900;SDS011;62235;52.160;7.526;2023-04-06T02:17:11;6.57;;;4.13;;
73900;SDS011;62235;52.160;7.526;2023-04-06T02:19:36;9.70;;;4.73;;
73900;SDS011;62235;52.160;7.526;2023-04-06T02:22:01;8.93;;;4.23;;
73900;SDS011;62235;52.160;7.526;2023-04-06T02:24:27;8.93;;;4.47;;
73900;SDS011;62235;52.160;7.526;2023-04-06T02:26:52;10.43;;;4.63;;
73900;SDS011;62235;52.160;7.526;2023-04-06T02:29:17;10.17;;;4.80;;
73900;SDS011;62235;52.160;7.526;2023-04-06T02:31:42;9.87;;;4.60;;
73900;SDS011;62235;52.160;7.526;2023-04-06T02:34:08;13.87;;;5.43;;
73900;SDS011;62235;52.160;7.526;2023-04-06T02:36:35;10.50;;;5.35;;
73900;SDS011;62235;52.160;7.526;2023-04-06T02:39:01;10.48;;;4.78;;
73900;SDS011;62235;52.160;7.526;2023-04-06T02:41:26;8.20;;;4.75;;
73900;SDS011;62235;52.160;7.526;2023-04-06T02:43:52;10.10;;;4.43;;
73900;SDS011;62235;52.160;7.526;2023-04-06T02:46:17;11.10;;;5.03;;
73900;SDS011;62235;52.160;7.526;2023-04-06T02:48:42;9.27;;;4.53;;
73900;SDS011;62235;52.160;7.526;2023-04-06T02:51:08;10.73;;;4.57;;
73900;SDS011;62235;52.160;7.526;2023-04-06T02:53:33;8.73;;;4.27;;
73900;SDS011;62235;52.160;7.526;2023-04-06T02:55:58;10.00;;;4.73;;
73900;SDS011;62235;52.160;7.526;2023-04-06T02:58:24;7.88;;;4.75;;
73900;SDS011;62235;52.160;7.526;2023-04-06T03:00:49;8.63;;;4.70;;
73900;SDS011;62235;52.160;7.526;2023-04-06T03:03:15;10.13;;;4.30;;
73900;SDS011;62235;52.160;7.526;2023-04-06T03:05:40;9.10;;;5.20;;
73900;SDS011;62235;52.160;7.526;2023-04-06T03:08:05;9.25;;;5.00;;
73900;SDS011;62235;52.160;7.526;2023-04-06T03:10:31;8.57;;;4.85;;
73900;SDS011;62235;52.160;7.526;2023-04-06T03:12:56;8.40;;;4.50;;
73900;SDS011;62235;52.160;7.526;2023-04-06T03:15:22;8.60;;;5.40;;
73900;SDS011;62235;52.160;7.526;2023-04-06T03:17:47;9.07;;;4.47;;
73900;SDS011;62235;52.160;7.526;2023-04-06T03:20:12;13.70;;;5.60;;
73900;SDS011;62235;52.160;7.526;2023-04-06T03:22:37;9.67;;;5.50;;
73900;SDS011;62235;52.160;7.526;2023-04-06T03:25:03;10.57;;;5.87;;
73900;SDS011;62235;52.160;7.526;2023-04-06T03:27:29;9.75;;;5.57;;
73900;SDS011;62235;52.160;7.526;2023-04-06T03:29:54;11.83;;;5.50;;
73900;SDS011;62235;52.160;7.526;2023-04-06T03:32:19;8.90;;;4.80;;
73900;SDS011;62235;52.160;7.526;2023-04-06T03:34:45;12.38;;;5.78;;
73900;SDS011;62235;52.160;7.526;2023-04-06T03:37:10;11.10;;;5.10;;
73900;SDS011;62235;52.160;7.526;2023-04-06T03:39:35;10.93;;;5.18;;
73900;SDS011;62235;52.160;7.526;2023-04-06T03:42:01;11.73;;;5.50;;
73900;SDS011;62235;52.160;7.526;2023-04-06T03:44:26;9.20;;;4.90;;
73900;SDS011;62235;52.160;7.526;2023-04-06T03:46:51;12.47;;;6.53;;
73900;SDS011;62235;52.160;7.526;2023-04-06T03:49:17;10.13;;;5.20;;
73900;SDS011;62235;52.160;7.526;2023-04-06T03:51:42;13.60;;;5.68;;
73900;SDS011;62235;52.160;7.526;2023-04-06T03:54:07;10.65;;;5.38;;
73900;SDS011;62235;52.160;7.526;2023-04-06T03:56:33;10.17;;;4.90;;
73900;SDS011;62235;52.160;7.526;2023-04-06T03:58:58;15.20;;;5.87;;
73900;SDS011;62235;52.160;7.526;2023-04-06T04:01:23;9.10;;;4.53;;
73900;SDS011;62235;52.160;7.526;2023-04-06T04:03:49;10.23;;;5.20;;
73900;SDS011;62235;52.160;7.526;2023-04-06T04:06:15;13.48;;;5.88;;
73900;SDS011;62235;52.160;7.526;2023-04-06T04:08:40;11.27;;;5.53;;
73900;SDS011;62235;52.160;7.526;2023-04-06T04:11:05;9.10;;;5.25;;
73900;SDS011;62235;52.160;7.526;2023-04-06T04:13:31;8.53;;;5.37;;
73900;SDS011;62235;52.160;7.526;2023-04-06T04:15:56;11.30;;;5.33;;
73900;SDS011;62235;52.160;7.526;2023-04-06T04:18:21;15.55;;;4.90;;
73900;SDS011;62235;52.160;7.526;2023-04-06T04:20:47;11.77;;;6.32;;
73900;SDS011;62235;52.160;7.526;2023-04-06T04:23:12;11.33;;;5.30;;
73900;SDS011;62235;52.160;7.526;2023-04-06T04:25:37;9.83;;;5.17;;
73900;SDS011;62235;52.160;7.526;2023-04-06T04:28:03;13.67;;;6.73;;
73900;SDS011;62235;52.160;7.526;2023-04-06T04:30:28;10.60;;;5.50;;
73900;SDS011;62235;52.160;7.526;2023-04-06T04:32:53;10.83;;;5.10;;
73900;SDS011;62235;52.160;7.526;2023-04-06T04:35:19;9.10;;;5.13;;
73900;SDS011;62235;52.160;7.526;2023-04-06T04:37:44;11.63;;;5.47;;
73900;SDS011;62235;52.160;7.526;2023-04-06T04:40:10;11.00;;;5.28;;
73900;SDS011;62235;52.160;7.526;2023-04-06T04:42:36;13.20;;;6.22;;
73900;SDS011;62235;52.160;7.526;2023-04-06T04:45:01;10.82;;;5.50;;
73900;SDS011;62235;52.160;7.526;2023-04-06T04:47:26;14.93;;;6.38;;
73900;SDS011;62235;52.160;7.526;2023-04-06T04:49:52;11.57;;;5.63;;
73900;SDS011;62235;52.160;7.526;2023-04-06T04:52:17;12.18;;;6.28;;
73900;SDS011;62235;52.160;7.526;2023-04-06T04:54:42;11.63;;;5.53;;
73900;SDS011;62235;52.160;7.526;2023-04-06T04:57:08;13.50;;;5.67;;
73900;SDS011;62235;52.160;7.526;2023-04-06T04:59:34;14.00;;;6.30;;
73900;SDS011;62235;52.160;7.526;2023-04-06T05:01:59;7.97;;;4.57;;
73900;SDS011;62235;52.160;7.526;2023-04-06T05:04:25;13.93;;;6.20;;
73900;SDS011;62235;52.160;7.526;2023-04-06T05:06:51;10.52;;;6.28;;
73900;SDS011;62235;52.160;7.526;2023-04-06T05:09:28;10.90;;;4.72;;
73900;SDS011;62235;52.160;7.526;2023-04-06T05:11:54;14.30;;;5.15;;
73900;SDS011;62235;52.160;7.526;2023-04-06T05:14:20;10.85;;;6.07;;
73900;SDS011;62235;52.160;7.526;2023-04-06T05:16:46;9.27;;;5.43;;
73900;SDS011;62235;52.160;7.526;2023-04-06T05:19:11;12.45;;;6.43;;
73900;SDS011;62235;52.160;7.526;2023-04-06T05:21:37;12.13;;;6.53;;
73900;SDS011;62235;52.160;7.526;2023-04-06T05:24:02;9.33;;;5.30;;
73900;SDS011;62235;52.160;7.526;2023-04-06T05:26:27;17.90;;;5.60;;
73900;SDS011;62235;52.160;7.526;2023-04-06T05:28:53;11.70;;;6.07;;
73900;SDS011;62235;52.160;7.526;2023-04-06T05:31:19;8.23;;;4.95;;
73900;SDS011;62235;52.160;7.526;2023-04-06T05:33:45;12.52;;;6.55;;
73900;SDS011;62235;52.160;7.526;2023-04-06T05:36:10;13.13;;;6.22;;
73900;SDS011;62235;52.160;7.526;2023-04-06T05:38:35;8.60;;;4.65;;
73900;SDS011;62235;52.160;7.526;2023-04-06T05:41:01;18.37;;;7.13;;
73900;SDS011;62235;52.160;7.526;2023-04-06T05:43:26;11.60;;;5.90;;
73900;SDS011;62235;52.160;7.526;2023-04-06T05:45:51;12.13;;;5.83;;
73900;SDS011;62235;52.160;7.526;2023-04-06T05:48:17;14.07;;;6.97;;
73900;SDS011;62235;52.160;7.526;2023-04-06T05:50:42;8.27;;;4.43;;
73900;SDS011;62235;52.160;7.526;2023-04-06T05:53:07;12.48;;;5.82;;
73900;SDS011;62235;52.160;7.526;2023-04-06T05:55:33;9.50;;;5.07;;
73900;SDS011;62235;52.160;7.526;2023-04-06T05:57:58;11.30;;;6.10;;
73900;SDS011;62235;52.160;7.526;2023-04-06T06:00:23;10.70;;;6.60;;
73900;SDS011;62235;52.160;7.526;2023-04-06T06:02:49;12.88;;;7.10;;
73900;SDS011;62235;52.160;7.526;2023-04-06T06:05:15;13.60;;;7.13;;
73900;SDS011;62235;52.160;7.526;2023-04-06T06:07:40;11.40;;;6.93;;
73900;SDS011;62235;52.160;7.526;2023-04-06T06:10:05;9.10;;;4.90;;
73900;SDS011;62235;52.160;7.526;2023-04-06T06:12:31;11.05;;;5.97;;
73900;SDS011;62235;52.160;7.526;2023-04-06T06:14:57;14.32;;;7.45;;
73900;SDS011;62235;52.160;7.526;2023-04-06T06:17:22;13.38;;;7.10;;
73900;SDS011;62235;52.160;7.526;2023-04-06T06:19:47;15.75;;;7.22;;
73900;SDS011;62235;52.160;7.526;2023-04-06T06:22:13;13.77;;;7.60;;
73900;SDS011;62235;52.160;7.526;2023-04-06T06:24:38;12.52;;;7.18;;
73900;SDS011;62235;52.160;7.526;2023-04-06T06:27:03;14.40;;;7.53;;
73900;SDS011;62235;52.160;7.526;2023-04-06T06:29:29;14.40;;;7.27;;
73900;SDS011;62235;52.160;7.526;2023-04-06T06:31:54;20.07;;;8.03;;
73900;SDS011;62235;52.160;7.526;2023-04-06T06:34:19;16.38;;;7.60;;
73900;SDS011;62235;52.160;7.526;2023-04-06T06:36:45;14.07;;;6.25;;
73900;SDS011;62235;52.160;7.526;2023-04-06T06:39:10;10.57;;;5.72;;
73900;SDS011;62235;52.160;7.526;2023-04-06T06:41:36;9.53;;;5.23;;
73900;SDS011;62235;52.160;7.526;2023-04-06T06:44:01;14.47;;;7.00;;
73900;SDS011;62235;52.160;7.526;2023-04-06T06:46:27;12.52;;;6.97;;
73900;SDS011;62235;52.160;7.526;2023-04-06T06:48:52;9.40;;;5.27;;
73900;SDS011;62235;52.160;7.526;2023-04-06T06:51:17;17.13;;;7.33;;
73900;SDS011;62235;52.160;7.526;2023-04-06T06:53:43;11.07;;;6.10;;
73900;SDS011;62235;52.160;7.526;2023-04-06T06:56:08;11.97;;;6.07;;
73900;SDS011;62235;52.160;7.526;2023-04-06T06:58:33;13.90;;;6.70;;
73900;SDS011;62235;52.160;7.526;2023-04-06T07:00:59;13.03;;;8.20;;
73900;SDS011;62235;52.160;7.526;2023-04-06T07:03:24;12.77;;;6.68;;
73900;SDS011;62235;52.160;7.526;2023-04-06T07:05:50;12.55;;;6.68;;
73900;SDS011;62235;52.160;7.526;2023-04-06T07:08:21;16.05;;;7.80;;
73900;SDS011;62235;52.160;7.526;2023-04-06T07:10:48;15.32;;;7.07;;
73900;SDS011;62235;52.160;7.526;2023-04-06T07:13:15;13.07;;;6.82;;
73900;SDS011;62235;52.160;7.526;2023-04-06T07:15:46;15.02;;;8.38;;
73900;SDS011;62235;52.160;7.526;2023-04-06T07:18:11;9.20;;;5.23;;
73900;SDS011;62235;52.160;7.526;2023-04-06T07:20:37;14.95;;;8.48;;
73900;SDS011;62235;52.160;7.526;2023-04-06T07:23:02;15.07;;;9.20;;
73900;SDS011;62235;52.160;7.526;2023-04-06T07:25:27;12.75;;;8.02;;
73900;SDS011;62235;52.160;7.526;2023-04-06T07:27:53;16.67;;;7.72;;
73900;SDS011;62235;52.160;7.526;2023-04-06T07:30:18;14.93;;;7.10;;
73900;SDS011;62235;52.160;7.526;2023-04-06T07:32:44;13.23;;;6.82;;
73900;SDS011;62235;52.160;7.526;2023-04-06T07:35:10;15.30;;;8.50;;
73900;SDS011;62235;52.160;7.526;2023-04-06T07:37:35;14.97;;;7.07;;
73900;SDS011;62235;52.160;7.526;2023-04-06T07:40:00;14.40;;;7.40;;
73900;SDS011;62235;52.160;7.526;2023-04-06T07:42:26;15.48;;;8.68;;
73900;SDS011;62235;52.160;7.526;2023-04-06T07:44:51;13.30;;;7.73;;
73900;SDS011;62235;52.160;7.526;2023-04-06T07:47:16;16.57;;;7.70;;
73900;SDS011;62235;52.160;7.526;2023-04-06T07:49:42;14.98;;;7.80;;
73900;SDS011;62235;52.160;7.526;2023-04-06T07:52:07;15.07;;;7.27;;
73900;SDS011;62235;52.160;7.526;2023-04-06T07:54:32;13.87;;;7.77;;
73900;SDS011;62235;52.160;7.526;2023-04-06T07:56:58;18.05;;;7.57;;
73900;SDS011;62235;52.160;7.526;2023-04-06T07:59:23;14.15;;;7.55;;
73900;SDS011;62235;52.160;7.526;2023-04-06T08:01:48;12.40;;;7.07;;
73900;SDS011;62235;52.160;7.526;2023-04-06T08:04:14;16.90;;;8.15;;
73900;SDS011;62235;52.160;7.526;2023-04-06T08:06:39;14.05;;;6.75;;
73900;SDS011;62235;52.160;7.526;2023-04-06T08:09:06;11.57;;;7.40;;
73900;SDS011;62235;52.160;7.526;2023-04-06T08:11:31;17.07;;;7.40;;
73900;SDS011;62235;52.160;7.526;2023-04-06T08:13:56;13.17;;;6.73;;
73900;SDS011;62235;52.160;7.526;2023-04-06T08:16:22;12.00;;;7.60;;
73900;SDS011;62235;52.160;7.526;2023-04-06T08:18:48;13.90;;;7.18;;
73900;SDS011;62235;52.160;7.526;2023-04-06T08:21:13;13.10;;;6.70;;
73900;SDS011;62235;52.160;7.526;2023-04-06T08:23:39;12.23;;;7.00;;
73900;SDS011;62235;52.160;7.526;2023-04-06T08:26:04;13.37;;;6.63;;
73900;SDS011;62235;52.160;7.526;2023-04-06T08:28:29;13.23;;;7.22;;
73900;SDS011;62235;52.160;7.526;2023-04-06T08:30:55;11.13;;;6.47;;
73900;SDS011;62235;52.160;7.526;2023-04-06T08:33:20;12.10;;;6.67;;
73900;SDS011;62235;52.160;7.526;2023-04-06T08:35:45;14.87;;;7.97;;
73900;SDS011;62235;52.160;7.526;2023-04-06T08:38:11;13.48;;;8.02;;
73900;SDS011;62235;52.160;7.526;2023-04-06T08:40:37;14.23;;;7.37;;
73900;SDS011;62235;52.160;7.526;2023-04-06T08:43:02;18.63;;;7.57;;
73900;SDS011;62235;52.160;7.526;2023-04-06T08:45:28;18.33;;;10.57;;
73900;SDS011;62235;52.160;7.526;2023-04-06T08:47:54;12.73;;;7.50;;
73900;SDS011;62235;52.160;7.526;2023-04-06T08:50:23;14.00;;;7.63;;
73900;SDS011;62235;52.160;7.526;2023-04-06T08:52:49;13.35;;;9.35;;
73900;SDS011;62235;52.160;7.526;2023-04-06T08:55:15;15.63;;;7.72;;
73900;SDS011;62235;52.160;7.526;2023-04-06T08:57:41;11.70;;;7.50;;
73900;SDS011;62235;52.160;7.526;2023-04-06T09:00:07;11.20;;;7.05;;
73900;SDS011;62235;52.160;7.526;2023-04-06T09:02:36;13.52;;;7.85;;
73900;SDS011;62235;52.160;7.526;2023-04-06T09:07:29;12.73;;;7.53;;
73900;SDS011;62235;52.160;7.526;2023-04-06T09:09:54;13.70;;;8.43;;
73900;SDS011;62235;52.160;7.526;2023-04-06T09:12:23;12.15;;;6.72;;
73900;SDS011;62235;52.160;7.526;2023-04-06T09:14:49;15.60;;;7.45;;
73900;SDS011;62235;52.160;7.526;2023-04-06T09:17:21;15.40;;;7.50;;
73900;SDS011;62235;52.160;7.526;2023-04-06T09:19:48;12.88;;;7.38;;
73900;SDS011;62235;52.160;7.526;2023-04-06T09:22:13;15.50;;;8.95;;
73900;SDS011;62235;52.160;7.526;2023-04-06T09:24:39;13.43;;;7.67;;
73900;SDS011;62235;52.160;7.526;2023-04-06T09:27:10;15.07;;;7.60;;
73900;SDS011;62235;52.160;7.526;2023-04-06T09:29:36;13.63;;;9.10;;
73900;SDS011;62235;52.160;7.526;2023-04-06T09:32:05;13.32;;;8.73;;
73900;SDS011;62235;52.160;7.526;2023-04-06T09:34:31;12.85;;;7.07;;
73900;SDS011;62235;52.160;7.526;2023-04-06T09:36:56;15.73;;;7.57;;
73900;SDS011;62235;52.160;7.526;2023-04-06T09:39:23;11.25;;;7.65;;
73900;SDS011;62235;52.160;7.526;2023-04-06T09:41:50;12.95;;;7.20;;
73900;SDS011;62235;52.160;7.526;2023-04-06T09:44:16;13.18;;;8.23;;
73900;SDS011;62235;52.160;7.526;2023-04-06T09:46:42;12.80;;;8.57;;
73900;SDS011;62235;52.160;7.526;2023-04-06T09:49:08;14.93;;;9.98;;
73900;SDS011;62235;52.160;7.526;2023-04-06T09:54:18;15.25;;;9.23;;
73900;SDS011;62235;52.160;7.526;2023-04-06T09:56:47;12.40;;;8.52;;
73900;SDS011;62235;52.160;7.526;2023-04-06T10:04:56;15.70;;;11.45;;
73900;SDS011;62235;52.160;7.526;2023-04-06T10:07:27;14.15;;;10.70;;
73900;SDS011;62235;52.160;7.526;2023-04-06T10:09:53;16.75;;;10.75;;
73900;SDS011;62235;52.160;7.526;2023-04-06T10:12:20;20.35;;;13.40;;
73900;SDS011;62235;52.160;7.526;2023-04-06T10:14:45;17.35;;;11.60;;
73900;SDS011;62235;52.160;7.526;2023-04-06T10:17:11;17.73;;;10.52;;
73900;SDS011;62235;52.160;7.526;2023-04-06T10:22:05;18.95;;;13.55;;
73900;SDS011;62235;52.160;7.526;2023-04-06T10:27:02;17.40;;;11.57;;
73900;SDS011;62235;52.160;7.526;2023-04-06T10:29:28;21.23;;;11.95;;
73900;SDS011;62235;52.160;7.526;2023-04-06T10:31:53;18.42;;;13.07;;
73900;SDS011;62235;52.160;7.526;2023-04-06T10:34:20;18.13;;;13.38;;
73900;SDS011;62235;52.160;7.526;2023-04-06T10:36:45;15.38;;;9.85;;
73900;SDS011;62235;52.160;7.526;2023-04-06T10:39:11;17.33;;;11.30;;
73900;SDS011;62235;52.160;7.526;2023-04-06T10:41:41;15.07;;;6.53;;
73900;SDS011;62235;52.160;7.526;2023-04-06T10:44:07;17.35;;;12.32;;
73900;SDS011;62235;52.160;7.526;2023-04-06T10:46:33;17.33;;;9.60;;
73900;SDS011;62235;52.160;7.526;2023-04-06T10:49:09;17.65;;;10.82;;
73900;SDS011;62235;52.160;7.526;2023-04-06T10:51:38;16.35;;;10.30;;
73900;SDS011;62235;52.160;7.526;2023-04-06T10:54:05;16.45;;;10.35;;
73900;SDS011;62235;52.160;7.526;2023-04-06T10:56:31;15.52;;;9.20;;
73900;SDS011;62235;52.160;7.526;2023-04-06T10:58:59;20.25;;;11.27;;
73900;SDS011;62235;52.160;7.526;2023-04-06T11:01:24;18.90;;;11.00;;
73900;SDS011;62235;52.160;7.526;2023-04-06T11:03:53;18.38;;;11.93;;
73900;SDS011;62235;52.160;7.526;2023-04-06T11:08:45;16.48;;;10.93;;
73900;SDS011;62235;52.160;7.526;2023-04-06T11:11:12;17.65;;;10.45;;
73900;SDS011;62235;52.160;7.526;2023-04-06T11:14:04;16.75;;;11.48;;
73900;SDS011;62235;52.160;7.526;2023-04-06T11:16:31;19.23;;;10.68;;
73900;SDS011;62235;52.160;7.526;2023-04-06T11:19:02;17.50;;;11.27;;
73900;SDS011;62235;52.160;7.526;2023-04-06T11:21:32;16.15;;;9.70;;
73900;SDS011;62235;52.160;7.526;2023-04-06T11:24:10;20.08;;;10.80;;
73900;SDS011;62235;52.160;7.526;2023-04-06T11:26:53;15.15;;;11.07;;
73900;SDS011;62235;52.160;7.526;2023-04-06T11:29:20;17.05;;;10.48;;
73900;SDS011;62235;52.160;7.526;2023-04-06T11:31:47;10.18;;;5.13;;
73900;SDS011;62235;52.160;7.526;2023-04-06T11:34:18;18.95;;;10.45;;
73900;SDS011;62235;52.160;7.526;2023-04-06T11:36:46;20.33;;;10.52;;
73900;SDS011;62235;52.160;7.526;2023-04-06T11:39:13;19.92;;;11.20;;
73900;SDS011;62235;52.160;7.526;2023-04-06T11:41:39;18.83;;;11.30;;
73900;SDS011;62235;52.160;7.526;2023-04-06T11:44:05;18.13;;;11.30;;
73900;SDS011;62235;52.160;7.526;2023-04-06T11:46:31;19.77;;;12.02;;
73900;SDS011;62235;52.160;7.526;2023-04-06T11:49:00;19.63;;;12.25;;
73900;SDS011;62235;52.160;7.526;2023-04-06T11:51:26;19.23;;;11.55;;
73900;SDS011;62235;52.160;7.526;2023-04-06T11:53:52;19.73;;;11.10;;
73900;SDS011;62235;52.160;7.526;2023-04-06T11:56:28;20.20;;;11.35;;
73900;SDS011;62235;52.160;7.526;2023-04-06T11:58:54;17.58;;;10.77;;
73900;SDS011;62235;52.160;7.526;2023-04-06T12:01:21;19.15;;;11.40;;
73900;SDS011;62235;52.160;7.526;2023-04-06T12:03:46;20.98;;;12.18;;
73900;SDS011;62235;52.160;7.526;2023-04-06T12:06:11;19.02;;;10.90;;
73900;SDS011;62235;52.160;7.526;2023-04-06T12:08:37;19.85;;;10.82;;
73900;SDS011;62235;52.160;7.526;2023-04-06T12:11:02;24.05;;;12.38;;
73900;SDS011;62235;52.160;7.526;2023-04-06T12:13:27;17.93;;;11.07;;
73900;SDS011;62235;52.160;7.526;2023-04-06T12:15:53;18.00;;;12.07;;
73900;SDS011;62235;52.160;7.526;2023-04-06T12:18:18;18.17;;;10.50;;
73900;SDS011;62235;52.160;7.526;2023-04-06T12:20:43;19.77;;;11.10;;
73900;SDS011;62235;52.160;7.526;2023-04-06T12:23:09;17.63;;;11.13;;
73900;SDS011;62235;52.160;7.526;2023-04-06T12:25:34;21.30;;;14.30;;
73900;SDS011;62235;52.160;7.526;2023-04-06T12:28:00;20.70;;;12.00;;
73900;SDS011;62235;52.160;7.526;2023-04-06T12:30:25;20.25;;;12.23;;
73900;SDS011;62235;52.160;7.526;2023-04-06T12:32:51;19.15;;;11.63;;
73900;SDS011;62235;52.160;7.526;2023-04-06T12:35:16;19.93;;;12.17;;
73900;SDS011;62235;52.160;7.526;2023-04-06T12:37:41;19.27;;;11.63;;
73900;SDS011;62235;52.160;7.526;2023-04-06T12:40:07;20.65;;;12.25;;
73900;SDS011;62235;52.160;7.526;2023-04-06T12:42:35;21.02;;;11.95;;
73900;SDS011;62235;52.160;7.526;2023-04-06T12:45:00;19.00;;;10.82;;
73900;SDS011;62235;52.160;7.526;2023-04-06T12:47:26;17.43;;;9.50;;
73900;SDS011;62235;52.160;7.526;2023-04-06T12:49:51;19.60;;;12.50;;
73900;SDS011;62235;52.160;7.526;2023-04-06T12:52:16;19.40;;;11.80;;
73900;SDS011;62235;52.160;7.526;2023-04-06T12:54:42;18.30;;;11.27;;
73900;SDS011;62235;52.160;7.526;2023-04-06T12:57:07;20.38;;;11.80;;
73900;SDS011;62235;52.160;7.526;2023-04-06T12:59:33;18.20;;;10.03;;
73900;SDS011;62235;52.160;7.526;2023-04-06T13:02:00;18.63;;;10.88;;
73900;SDS011;62235;52.160;7.526;2023-04-06T13:04:25;19.80;;;12.07;;
73900;SDS011;62235;52.160;7.526;2023-04-06T13:06:51;17.95;;;10.95;;
73900;SDS011;62235;52.160;7.526;2023-04-06T13:09:16;17.33;;;10.80;;
73900;SDS011;62235;52.160;7.526;2023-04-06T13:11:42;16.80;;;10.23;;
73900;SDS011;62235;52.160;7.526;2023-04-06T13:14:07;20.67;;;12.10;;
73900;SDS011;62235;52.160;7.526;2023-04-06T13:16:32;20.30;;;11.17;;
73900;SDS011;62235;52.160;7.526;2023-04-06T13:18:58;18.13;;;10.40;;
73900;SDS011;62235;52.160;7.526;2023-04-06T13:21:23;19.17;;;12.73;;
73900;SDS011;62235;52.160;7.526;2023-04-06T13:23:48;17.50;;;10.98;;
73900;SDS011;62235;52.160;7.526;2023-04-06T13:26:14;24.50;;;11.73;;
73900;SDS011;62235;52.160;7.526;2023-04-06T13:28:41;16.27;;;10.18;;
73900;SDS011;62235;52.160;7.526;2023-04-06T13:31:07;18.95;;;11.43;;
73900;SDS011;62235;52.160;7.526;2023-04-06T13:33:33;18.98;;;9.73;;
73900;SDS011;62235;52.160;7.526;2023-04-06T13:35:59;17.08;;;10.23;;
73900;SDS011;62235;52.160;7.526;2023-04-06T13:38:25;18.27;;;11.13;;
73900;SDS011;62235;52.160;7.526;2023-04-06T13:40:50;18.70;;;9.32;;
73900;SDS011;62235;52.160;7.526;2023-04-06T13:43:16;18.70;;;10.25;;
73900;SDS011;62235;52.160;7.526;2023-04-06T13:45:49;20.00;;;10.43;;
73900;SDS011;62235;52.160;7.526;2023-04-06T13:48:16;17.65;;;10.98;;
73900;SDS011;62235;52.160;7.526;2023-04-06T13:50:42;18.63;;;10.38;;
73900;SDS011;62235;52.160;7.526;2023-04-06T13:53:07;18.98;;;9.95;;
73900;SDS011;62235;52.160;7.526;2023-04-06T13:55:33;14.43;;;6.82;;
73900;SDS011;62235;52.160;7.526;2023-04-06T13:57:58;20.03;;;12.43;;
73900;SDS011;62235;52.160;7.526;2023-04-06T14:00:23;20.23;;;10.97;;
73900;SDS011;62235;52.160;7.526;2023-04-06T14:02:49;15.70;;;8.98;;
73900;SDS011;62235;52.160;7.526;2023-04-06T14:05:14;19.13;;;11.25;;
73900;SDS011;62235;52.160;7.526;2023-04-06T14:07:40;24.80;;;12.13;;
73900;SDS011;62235;52.160;7.526;2023-04-06T14:10:05;21.80;;;11.25;;
73900;SDS011;62235;52.160;7.526;2023-04-06T14:12:38;22.50;;;11.40;;
73900;SDS011;62235;52.160;7.526;2023-04-06T14:15:03;18.88;;;11.32;;
73900;SDS011;62235;52.160;7.526;2023-04-06T14:17:29;18.92;;;10.60;;
73900;SDS011;62235;52.160;7.526;2023-04-06T14:19:54;21.50;;;11.13;;
73900;SDS011;62235;52.160;7.526;2023-04-06T14:22:20;17.63;;;9.77;;
73900;SDS011;62235;52.160;7.526;2023-04-06T14:24:45;23.90;;;14.00;;
73900;SDS011;62235;52.160;7.526;2023-04-06T14:27:11;24.02;;;13.40;;
73900;SDS011;62235;52.160;7.526;2023-04-06T14:29:37;18.75;;;10.57;;
73900;SDS011;62235;52.160;7.526;2023-04-06T14:32:02;18.70;;;10.37;;
73900;SDS011;62235;52.160;7.526;2023-04-06T14:34:28;22.10;;;11.68;;
73900;SDS011;62235;52.160;7.526;2023-04-06T14:36:53;19.85;;;10.50;;
73900;SDS011;62235;52.160;7.526;2023-04-06T14:39:19;26.10;;;11.63;;
73900;SDS011;62235;52.160;7.526;2023-04-06T14:41:45;21.08;;;12.25;;
73900;SDS011;62235;52.160;7.526;2023-04-06T14:44:12;19.52;;;10.85;;